sensor_id;sensor_type;location;lat;lon;timestamp;pressure;altitude;pressure_sealevel;temperature;humidity
46886;BME280;32622;48.202;11.326;2023-02-05T00:00:34;1041.03;;;0.90;26.10
46886;BME280;32622;48.202;11.326;2023-02-05T00:02:37;1040.91;;;1.32;26.10
46886;BME280;32622;48.202;11.326;2023-02-05T00:04:40;1040.97;;;1.10;25.99
46886;BME280;32622;48.202;11.326;2023-02-05T00:06:44;1040.99;;;0.81;26.11
46886;BME280;32622;48.202;11.326;2023-02-05T00:08:47;1040.92;;;1.02;26.12
46886;BME280;32622;48.202;11.326;2023-02-05T00:10:51;1040.89;;;1.03;26.05
46886;BME280;32622;48.202;11.326;2023-02-05T00:12:54;1040.81;;;1.36;25.81
46886;BME280;32622;48.202;11.326;2023-02-05T00:14:57;1040.72;;;1.58;25.63
46886;BME280;32622;48.202;11.326;2023-02-05T00:17:00;1040.90;;;0.57;25.89
46886;BME280;32622;48.202;11.326;2023-02-05T00:19:03;1040.81;;;0.86;25.85
46886;BME280;32622;48.202;11.326;2023-02-05T00:21:07;1040.75;;;1.00;25.81
46886;BME280;32622;48.202;11.326;2023-02-05T00:23:10;1040.75;;;0.75;25.73
46886;BME280;32622;48.202;11.326;2023-02-05T00:25:13;1040.72;;;0.78;25.73
46886;BME280;32622;48.202;11.326;2023-02-05T00:27:16;1040.68;;;0.83;26.01
46886;BME280;32622;48.202;11.326;2023-02-05T00:29:19;1040.63;;;1.15;25.80
46886;BME280;32622;48.202;11.326;2023-02-05T00:31:22;1040.64;;;0.90;25.91
46886;BME280;32622;48.202;11.326;2023-02-05T00:33:25;1040.77;;;0.46;26.01
46886;BME280;32622;48.202;11.326;2023-02-05T00:35:28;1040.73;;;0.66;26.00
46886;BME280;32622;48.202;11.326;2023-02-05T00:37:31;1040.71;;;0.94;25.96
46886;BME280;32622;48.202;11.326;2023-02-05T00:39:34;1040.70;;;1.03;25.96
46886;BME280;32622;48.202;11.326;2023-02-05T00:41:37;1040.82;;;0.53;26.28
46886;BME280;32622;48.202;11.326;2023-02-05T00:43:40;1040.79;;;0.63;26.09
46886;BME280;32622;48.202;11.326;2023-02-05T00:45:44;1040.88;;;0.31;25.94
46886;BME280;32622;48.202;11.326;2023-02-05T00:47:47;1040.75;;;0.96;25.82
46886;BME280;32622;48.202;11.326;2023-02-05T00:49:50;1040.80;;;0.80;25.58
46886;BME280;32622;48.202;11.326;2023-02-05T00:51:53;1040.76;;;1.17;25.60
46886;BME280;32622;48.202;11.326;2023-02-05T00:53:57;1040.93;;;0.68;25.73
46886;BME280;32622;48.202;11.326;2023-02-05T00:56:00;1040.97;;;0.62;25.64
46886;BME280;32622;48.202;11.326;2023-02-05T00:58:03;1041.04;;;0.44;25.68
46886;BME280;32622;48.202;11.326;2023-02-05T01:00:08;1041.02;;;0.63;25.70
46886;BME280;32622;48.202;11.326;2023-02-05T01:02:14;1040.91;;;0.98;25.60
46886;BME280;32622;48.202;11.326;2023-02-05T01:04:17;1040.99;;;0.60;25.62
46886;BME280;32622;48.202;11.326;2023-02-05T01:06:20;1041.02;;;0.53;25.79
46886;BME280;32622;48.202;11.326;2023-02-05T01:08:24;1041.01;;;0.47;25.81
46886;BME280;32622;48.202;11.326;2023-02-05T01:10:27;1041.08;;;0.18;25.78
46886;BME280;32622;48.202;11.326;2023-02-05T01:12:30;1040.95;;;0.48;25.69
46886;BME280;32622;48.202;11.326;2023-02-05T01:14:32;1040.86;;;0.66;25.74
46886;BME280;32622;48.202;11.326;2023-02-05T01:16:36;1040.76;;;0.87;25.73
46886;BME280;32622;48.202;11.326;2023-02-05T01:18:39;1040.79;;;0.79;26.05
46886;BME280;32622;48.202;11.326;2023-02-05T01:20:47;1040.80;;;0.68;26.18
46886;BME280;32622;48.202;11.326;2023-02-05T01:22:50;1040.81;;;0.58;26.08
46886;BME280;32622;48.202;11.326;2023-02-05T01:24:53;1040.78;;;0.83;26.11
46886;BME280;32622;48.202;11.326;2023-02-05T01:26:57;1040.86;;;0.32;26.18
46886;BME280;32622;48.202;11.326;2023-02-05T01:29:00;1040.82;;;0.45;26.10
46886;BME280;32622;48.202;11.326;2023-02-05T01:31:03;1040.72;;;0.79;26.11
46886;BME280;32622;48.202;11.326;2023-02-05T01:33:06;1040.91;;;-0.12;25.91
46886;BME280;32622;48.202;11.326;2023-02-05T01:35:09;1040.63;;;1.02;25.97
46886;BME280;32622;48.202;11.326;2023-02-05T01:37:12;1040.69;;;0.60;25.92
46886;BME280;32622;48.202;11.326;2023-02-05T01:39:16;1040.84;;;0.30;26.02
46886;BME280;32622;48.202;11.326;2023-02-05T01:41:19;1040.77;;;0.63;25.89
46886;BME280;32622;48.202;11.326;2023-02-05T01:43:22;1040.90;;;0.32;26.05
46886;BME280;32622;48.202;11.326;2023-02-05T01:45:45;1040.97;;;0.09;26.25
46886;BME280;32622;48.202;11.326;2023-02-05T01:47:50;1040.90;;;0.32;26.49
46886;BME280;32622;48.202;11.326;2023-02-05T01:49:54;1040.86;;;0.42;26.43
46886;BME280;32622;48.202;11.326;2023-02-05T01:52:00;1040.91;;;0.27;26.24
46886;BME280;32622;48.202;11.326;2023-02-05T01:54:06;1040.99;;;-0.08;26.47
46886;BME280;32622;48.202;11.326;2023-02-05T01:56:19;1040.62;;;1.29;26.05
46886;BME280;32622;48.202;11.326;2023-02-05T01:58:24;1040.85;;;0.45;26.10
46886;BME280;32622;48.202;11.326;2023-02-05T02:00:28;1040.86;;;0.38;26.05
46886;BME280;32622;48.202;11.326;2023-02-05T02:02:39;1040.73;;;0.91;26.15
46886;BME280;32622;48.202;11.326;2023-02-05T02:04:44;1040.88;;;0.34;26.66
46886;BME280;32622;48.202;11.326;2023-02-05T02:06:48;1040.86;;;0.09;26.64
46886;BME280;32622;48.202;11.326;2023-02-05T02:08:52;1040.82;;;0.06;26.69
46886;BME280;32622;48.202;11.326;2023-02-05T02:10:56;1040.83;;;-0.12;26.93
46886;BME280;32622;48.202;11.326;2023-02-05T02:13:00;1040.81;;;-0.17;26.95
46886;BME280;32622;48.202;11.326;2023-02-05T02:15:08;1040.76;;;0.11;27.29
46886;BME280;32622;48.202;11.326;2023-02-05T02:17:15;1040.58;;;0.88;26.81
46886;BME280;32622;48.202;11.326;2023-02-05T02:19:25;1040.72;;;0.28;26.55
46886;BME280;32622;48.202;11.326;2023-02-05T02:21:51;1040.68;;;0.24;26.80
46886;BME280;32622;48.202;11.326;2023-02-05T02:24:12;1040.69;;;0.07;27.02
46886;BME280;32622;48.202;11.326;2023-02-05T02:26:30;1040.78;;;-0.34;27.07
46886;BME280;32622;48.202;11.326;2023-02-05T02:28:36;1040.68;;;0.15;27.01
46886;BME280;32622;48.202;11.326;2023-02-05T02:30:46;1040.64;;;0.07;26.84
46886;BME280;32622;48.202;11.326;2023-02-05T02:32:57;1040.57;;;0.19;27.00
46886;BME280;32622;48.202;11.326;2023-02-05T02:35:06;1040.57;;;0.12;26.87
46886;BME280;32622;48.202;11.326;2023-02-05T02:37:16;1040.55;;;0.13;26.80
46886;BME280;32622;48.202;11.326;2023-02-05T02:39:38;1040.69;;;-0.37;27.06
46886;BME280;32622;48.202;11.326;2023-02-05T02:41:46;1040.61;;;-0.28;27.41
46886;BME280;32622;48.202;11.326;2023-02-05T02:43:54;1040.54;;;0.01;26.85
46886;BME280;32622;48.202;11.326;2023-02-05T02:46:02;1040.48;;;0.20;26.50
46886;BME280;32622;48.202;11.326;2023-02-05T02:48:06;1040.58;;;-0.16;26.76
46886;BME280;32622;48.202;11.326;2023-02-05T02:50:26;1040.39;;;0.47;26.75
46886;BME280;32622;48.202;11.326;2023-02-05T02:52:33;1040.44;;;0.50;27.12
46886;BME280;32622;48.202;11.326;2023-02-05T02:54:39;1040.55;;;0.19;26.67
46886;BME280;32622;48.202;11.326;2023-02-05T02:57:01;1040.22;;;1.30;26.65
46886;BME280;32622;48.202;11.326;2023-02-05T02:59:24;1040.65;;;-0.45;27.12
46886;BME280;32622;48.202;11.326;2023-02-05T03:01:31;1040.55;;;0.06;27.12
46886;BME280;32622;48.202;11.326;2023-02-05T03:03:50;1040.45;;;0.25;27.42
46886;BME280;32622;48.202;11.326;2023-02-05T03:05:55;1040.52;;;-0.24;27.17
46886;BME280;32622;48.202;11.326;2023-02-05T03:08:05;1040.40;;;0.24;26.87
46886;BME280;32622;48.202;11.326;2023-02-05T03:10:15;1040.36;;;0.18;26.82
46886;BME280;32622;48.202;11.326;2023-02-05T03:12:22;1040.37;;;0.01;26.50
46886;BME280;32622;48.202;11.326;2023-02-05T03:14:26;1040.26;;;0.24;26.31
46886;BME280;32622;48.202;11.326;2023-02-05T03:16:29;1040.34;;;-0.07;26.47
46886;BME280;32622;48.202;11.326;2023-02-05T03:18:32;1040.40;;;-0.50;26.65
46886;BME280;32622;48.202;11.326;2023-02-05T03:20:39;1040.19;;;0.18;26.65
46886;BME280;32622;48.202;11.326;2023-02-05T03:22:43;1040.11;;;0.18;26.70
46886;BME280;32622;48.202;11.326;2023-02-05T03:24:46;1040.02;;;0.47;26.57
46886;BME280;32622;48.202;11.326;2023-02-05T03:26:49;1040.09;;;0.02;26.47
46886;BME280;32622;48.202;11.326;2023-02-05T03:28:52;1039.91;;;0.57;26.39
46886;BME280;32622;48.202;11.326;2023-02-05T03:31:10;1039.83;;;0.78;26.02
46886;BME280;32622;48.202;11.326;2023-02-05T03:33:29;1039.93;;;0.25;25.92
46886;BME280;32622;48.202;11.326;2023-02-05T03:35:39;1040.00;;;0.01;25.83
46886;BME280;32622;48.202;11.326;2023-02-05T03:38:27;1039.74;;;0.91;26.02
46886;BME280;32622;48.202;11.326;2023-02-05T03:40:46;1039.92;;;0.21;26.18
46886;BME280;32622;48.202;11.326;2023-02-05T03:42:59;1040.10;;;-0.45;26.36
46886;BME280;32622;48.202;11.326;2023-02-05T03:45:47;1039.87;;;0.63;26.36
46886;BME280;32622;48.202;11.326;2023-02-05T03:48:16;1039.97;;;-0.02;26.21
46886;BME280;32622;48.202;11.326;2023-02-05T03:50:36;1040.04;;;-0.15;26.22
46886;BME280;32622;48.202;11.326;2023-02-05T03:52:46;1040.26;;;-0.75;26.29
46886;BME280;32622;48.202;11.326;2023-02-05T03:55:03;1040.15;;;-0.22;26.16
46886;BME280;32622;48.202;11.326;2023-02-05T03:57:14;1040.21;;;-0.40;26.25
46886;BME280;32622;48.202;11.326;2023-02-05T03:59:21;1040.44;;;-1.04;26.57
46886;BME280;32622;48.202;11.326;2023-02-05T04:01:27;1040.45;;;-1.02;26.89
46886;BME280;32622;48.202;11.326;2023-02-05T04:03:32;1040.27;;;-0.50;26.25
46886;BME280;32622;48.202;11.326;2023-02-05T04:05:36;1040.25;;;-0.35;26.04
46886;BME280;32622;48.202;11.326;2023-02-05T04:07:40;1040.35;;;-0.75;26.33
46886;BME280;32622;48.202;11.326;2023-02-05T04:09:43;1040.20;;;-0.46;26.02
46886;BME280;32622;48.202;11.326;2023-02-05T04:11:49;1040.08;;;-0.27;26.41
46886;BME280;32622;48.202;11.326;2023-02-05T04:14:08;1040.27;;;-1.04;27.30
46886;BME280;32622;48.202;11.326;2023-02-05T04:16:11;1040.28;;;-0.89;27.03
46886;BME280;32622;48.202;11.326;2023-02-05T04:18:19;1040.15;;;-0.56;26.46
46886;BME280;32622;48.202;11.326;2023-02-05T04:20:30;1039.96;;;0.18;26.24
46886;BME280;32622;48.202;11.326;2023-02-05T04:22:39;1040.02;;;0.04;26.16
46886;BME280;32622;48.202;11.326;2023-02-05T04:24:48;1040.19;;;-0.49;26.38
46886;BME280;32622;48.202;11.326;2023-02-05T04:26:51;1040.27;;;-1.02;26.56
46886;BME280;32622;48.202;11.326;2023-02-05T04:28:54;1040.33;;;-1.50;26.57
46886;BME280;32622;48.202;11.326;2023-02-05T04:30:57;1040.09;;;-0.84;26.52
46886;BME280;32622;48.202;11.326;2023-02-05T04:32:59;1040.02;;;-0.71;26.40
46886;BME280;32622;48.202;11.326;2023-02-05T04:35:08;1039.92;;;-0.36;26.27
46886;BME280;32622;48.202;11.326;2023-02-05T04:37:11;1039.97;;;-0.74;26.22
46886;BME280;32622;48.202;11.326;2023-02-05T04:39:21;1039.78;;;0.06;25.87
46886;BME280;32622;48.202;11.326;2023-02-05T04:41:59;1039.58;;;0.59;26.17
46886;BME280;32622;48.202;11.326;2023-02-05T04:45:24;1039.58;;;0.42;26.06
46886;BME280;32622;48.202;11.326;2023-02-05T04:48:22;1039.58;;;0.46;26.55
46886;BME280;32622;48.202;11.326;2023-02-05T04:54:08;1039.70;;;0.04;27.47
46886;BME280;32622;48.202;11.326;2023-02-05T04:56:13;1040.18;;;-1.73;27.07
46886;BME280;32622;48.202;11.326;2023-02-05T04:58:21;1039.89;;;-0.60;26.82
46886;BME280;32622;48.202;11.326;2023-02-05T05:00:24;1040.11;;;-1.46;26.38
46886;BME280;32622;48.202;11.326;2023-02-05T05:02:29;1040.00;;;-0.98;26.41
46886;BME280;32622;48.202;11.326;2023-02-05T05:04:35;1039.91;;;-1.01;25.88
46886;BME280;32622;48.202;11.326;2023-02-05T05:06:39;1039.92;;;-1.17;26.01
46886;BME280;32622;48.202;11.326;2023-02-05T05:08:42;1040.08;;;-1.80;26.11
46886;BME280;32622;48.202;11.326;2023-02-05T05:10:44;1039.91;;;-1.28;26.10
46886;BME280;32622;48.202;11.326;2023-02-05T05:12:47;1039.95;;;-1.53;25.85
46886;BME280;32622;48.202;11.326;2023-02-05T05:14:50;1039.93;;;-1.19;26.01
46886;BME280;32622;48.202;11.326;2023-02-05T05:16:57;1039.66;;;-0.20;25.75
46886;BME280;32622;48.202;11.326;2023-02-05T05:19:08;1039.73;;;-0.58;26.16
46886;BME280;32622;48.202;11.326;2023-02-05T05:21:11;1039.89;;;-1.19;26.52
46886;BME280;32622;48.202;11.326;2023-02-05T05:23:15;1039.78;;;-0.73;25.91
46886;BME280;32622;48.202;11.326;2023-02-05T05:25:22;1039.56;;;0.32;25.55
46886;BME280;32622;48.202;11.326;2023-02-05T05:27:25;1039.84;;;-0.52;25.53
46886;BME280;32622;48.202;11.326;2023-02-05T05:29:27;1039.84;;;-0.47;25.68
46886;BME280;32622;48.202;11.326;2023-02-05T05:31:30;1039.93;;;-1.04;25.69
46886;BME280;32622;48.202;11.326;2023-02-05T05:33:34;1039.83;;;-0.77;25.89
46886;BME280;32622;48.202;11.326;2023-02-05T05:35:37;1039.87;;;-0.94;25.97
46886;BME280;32622;48.202;11.326;2023-02-05T05:37:40;1039.88;;;-0.93;25.92
46886;BME280;32622;48.202;11.326;2023-02-05T05:39:44;1040.03;;;-1.34;26.06
46886;BME280;32622;48.202;11.326;2023-02-05T05:41:53;1040.09;;;-1.50;25.98
46886;BME280;32622;48.202;11.326;2023-02-05T05:43:57;1040.18;;;-1.53;25.95
46886;BME280;32622;48.202;11.326;2023-02-05T05:46:00;1040.13;;;-1.14;25.89
46886;BME280;32622;48.202;11.326;2023-02-05T05:48:04;1040.12;;;-0.99;25.86
46886;BME280;32622;48.202;11.326;2023-02-05T05:50:08;1039.99;;;-0.85;25.79
46886;BME280;32622;48.202;11.326;2023-02-05T05:52:11;1040.01;;;-1.14;25.46
46886;BME280;32622;48.202;11.326;2023-02-05T05:54:14;1040.15;;;-1.70;25.77
46886;BME280;32622;48.202;11.326;2023-02-05T05:56:18;1040.07;;;-1.41;25.92
46886;BME280;32622;48.202;11.326;2023-02-05T05:58:21;1039.98;;;-1.11;25.54
46886;BME280;32622;48.202;11.326;2023-02-05T06:00:25;1039.90;;;-0.78;25.17
46886;BME280;32622;48.202;11.326;2023-02-05T06:02:27;1040.20;;;-1.86;25.63
46886;BME280;32622;48.202;11.326;2023-02-05T06:04:35;1039.94;;;-0.89;25.61
46886;BME280;32622;48.202;11.326;2023-02-05T06:06:39;1040.17;;;-1.77;25.48
46886;BME280;32622;48.202;11.326;2023-02-05T06:08:44;1039.91;;;-0.85;25.38
46886;BME280;32622;48.202;11.326;2023-02-05T06:11:00;1040.00;;;-1.32;25.78
46886;BME280;32622;48.202;11.326;2023-02-05T06:13:03;1040.00;;;-1.44;25.56
46886;BME280;32622;48.202;11.326;2023-02-05T06:15:09;1040.02;;;-1.56;25.61
46886;BME280;32622;48.202;11.326;2023-02-05T06:17:14;1040.12;;;-1.87;24.98
46886;BME280;32622;48.202;11.326;2023-02-05T06:19:26;1039.95;;;-1.26;24.84
46886;BME280;32622;48.202;11.326;2023-02-05T06:21:29;1039.93;;;-1.23;24.66
46886;BME280;32622;48.202;11.326;2023-02-05T06:23:32;1040.07;;;-1.76;24.77
46886;BME280;32622;48.202;11.326;2023-02-05T06:25:43;1040.11;;;-1.45;24.86
46886;BME280;32622;48.202;11.326;2023-02-05T06:27:47;1040.08;;;-1.36;24.79
46886;BME280;32622;48.202;11.326;2023-02-05T06:30:09;1040.16;;;-1.19;25.02
46886;BME280;32622;48.202;11.326;2023-02-05T06:32:12;1040.24;;;-1.38;24.71
46886;BME280;32622;48.202;11.326;2023-02-05T06:34:27;1040.30;;;-1.33;24.87
46886;BME280;32622;48.202;11.326;2023-02-05T06:36:30;1040.31;;;-1.36;24.75
46886;BME280;32622;48.202;11.326;2023-02-05T06:38:42;1040.35;;;-1.60;24.89
46886;BME280;32622;48.202;11.326;2023-02-05T06:40:47;1040.35;;;-1.57;24.68
46886;BME280;32622;48.202;11.326;2023-02-05T06:42:51;1040.31;;;-1.64;24.68
46886;BME280;32622;48.202;11.326;2023-02-05T06:44:54;1040.36;;;-1.66;24.84
46886;BME280;32622;48.202;11.326;2023-02-05T06:46:57;1040.45;;;-1.96;24.92
46886;BME280;32622;48.202;11.326;2023-02-05T06:49:02;1040.36;;;-1.83;24.87
46886;BME280;32622;48.202;11.326;2023-02-05T06:51:05;1040.27;;;-1.83;24.97
46886;BME280;32622;48.202;11.326;2023-02-05T06:53:12;1040.31;;;-1.90;25.23
46886;BME280;32622;48.202;11.326;2023-02-05T06:55:20;1040.50;;;-2.53;25.28
46886;BME280;32622;48.202;11.326;2023-02-05T06:57:24;1040.46;;;-1.91;25.15
46886;BME280;32622;48.202;11.326;2023-02-05T06:59:27;1040.46;;;-1.82;25.09
46886;BME280;32622;48.202;11.326;2023-02-05T07:01:30;1040.35;;;-1.19;24.86
46886;BME280;32622;48.202;11.326;2023-02-05T07:03:33;1040.37;;;-1.31;24.69
46886;BME280;32622;48.202;11.326;2023-02-05T07:05:36;1040.47;;;-1.57;24.89
46886;BME280;32622;48.202;11.326;2023-02-05T07:07:40;1040.46;;;-1.40;24.92
46886;BME280;32622;48.202;11.326;2023-02-05T07:09:43;1040.39;;;-1.04;24.69
46886;BME280;32622;48.202;11.326;2023-02-05T07:11:46;1040.42;;;-1.29;24.72
46886;BME280;32622;48.202;11.326;2023-02-05T07:13:50;1040.39;;;-1.18;24.67
46886;BME280;32622;48.202;11.326;2023-02-05T07:15:53;1040.46;;;-1.55;24.79
46886;BME280;32622;48.202;11.326;2023-02-05T07:17:57;1040.37;;;-1.46;24.76
46886;BME280;32622;48.202;11.326;2023-02-05T07:20:00;1040.30;;;-1.36;24.84
46886;BME280;32622;48.202;11.326;2023-02-05T07:22:04;1040.29;;;-1.57;25.01
46886;BME280;32622;48.202;11.326;2023-02-05T07:24:08;1040.24;;;-1.43;24.98
46886;BME280;32622;48.202;11.326;2023-02-05T07:26:16;1040.19;;;-1.13;24.73
46886;BME280;32622;48.202;11.326;2023-02-05T07:28:19;1040.25;;;-1.61;24.70
46886;BME280;32622;48.202;11.326;2023-02-05T07:30:23;1040.07;;;-1.09;24.95
46886;BME280;32622;48.202;11.326;2023-02-05T07:32:26;1040.11;;;-1.19;24.69
46886;BME280;32622;48.202;11.326;2023-02-05T07:34:29;1040.14;;;-1.10;24.49
46886;BME280;32622;48.202;11.326;2023-02-05T07:36:32;1040.02;;;-0.59;24.28
46886;BME280;32622;48.202;11.326;2023-02-05T07:38:36;1040.09;;;-0.56;24.24
46886;BME280;32622;48.202;11.326;2023-02-05T07:40:39;1040.09;;;-0.34;24.14
46886;BME280;32622;48.202;11.326;2023-02-05T07:42:42;1040.14;;;-0.72;24.36
46886;BME280;32622;48.202;11.326;2023-02-05T07:44:44;1040.12;;;-0.84;24.72
46886;BME280;32622;48.202;11.326;2023-02-05T07:46:47;1040.10;;;-0.62;24.68
46886;BME280;32622;48.202;11.326;2023-02-05T07:48:49;1040.06;;;-0.33;24.45
46886;BME280;32622;48.202;11.326;2023-02-05T07:50:52;1040.06;;;-0.25;24.45
46886;BME280;32622;48.202;11.326;2023-02-05T07:52:54;1040.06;;;-0.41;24.37
46886;BME280;32622;48.202;11.326;2023-02-05T07:54:56;1040.06;;;-0.47;24.35
46886;BME280;32622;48.202;11.326;2023-02-05T07:57:01;1039.97;;;-0.09;24.52
46886;BME280;32622;48.202;11.326;2023-02-05T07:59:03;1040.17;;;-0.55;24.62
46886;BME280;32622;48.202;11.326;2023-02-05T08:01:06;1040.10;;;-0.22;24.43
46886;BME280;32622;48.202;11.326;2023-02-05T08:03:09;1040.17;;;-0.56;24.45
46886;BME280;32622;48.202;11.326;2023-02-05T08:05:12;1040.01;;;0.40;24.30
46886;BME280;32622;48.202;11.326;2023-02-05T08:07:16;1040.13;;;-0.05;24.65
46886;BME280;32622;48.202;11.326;2023-02-05T08:09:19;1040.14;;;-0.01;24.73
46886;BME280;32622;48.202;11.326;2023-02-05T08:11:22;1040.11;;;0.03;24.61
46886;BME280;32622;48.202;11.326;2023-02-05T08:13:25;1040.13;;;-0.03;24.55
46886;BME280;32622;48.202;11.326;2023-02-05T08:15:28;1040.05;;;0.55;24.64
46886;BME280;32622;48.202;11.326;2023-02-05T08:17:31;1040.12;;;0.11;24.74
46886;BME280;32622;48.202;11.326;2023-02-05T08:19:34;1040.06;;;0.13;24.93
46886;BME280;32622;48.202;11.326;2023-02-05T08:21:36;1039.99;;;0.34;24.89
46886;BME280;32622;48.202;11.326;2023-02-05T08:23:39;1039.90;;;0.49;25.00
46886;BME280;32622;48.202;11.326;2023-02-05T08:25:42;1039.92;;;0.10;25.09
46886;BME280;32622;48.202;11.326;2023-02-05T08:27:44;1039.72;;;0.57;25.05
46886;BME280;32622;48.202;11.326;2023-02-05T08:29:46;1039.70;;;0.41;25.04
46886;BME280;32622;48.202;11.326;2023-02-05T08:31:49;1039.55;;;0.98;24.94
46886;BME280;32622;48.202;11.326;2023-02-05T08:33:51;1039.58;;;0.99;24.87
46886;BME280;32622;48.202;11.326;2023-02-05T08:35:54;1039.59;;;0.78;24.86
46886;BME280;32622;48.202;11.326;2023-02-05T08:37:58;1039.45;;;1.46;24.73
46886;BME280;32622;48.202;11.326;2023-02-05T08:40:01;1039.47;;;0.95;24.73
46886;BME280;32622;48.202;11.326;2023-02-05T08:42:04;1039.49;;;0.63;24.94
46886;BME280;32622;48.202;11.326;2023-02-05T08:44:06;1039.18;;;1.50;24.96
46886;BME280;32622;48.202;11.326;2023-02-05T08:46:10;1039.24;;;1.30;24.97
46886;BME280;32622;48.202;11.326;2023-02-05T08:48:13;1039.27;;;0.97;24.88
46886;BME280;32622;48.202;11.326;2023-02-05T08:50:15;1039.25;;;0.93;24.74
46886;BME280;32622;48.202;11.326;2023-02-05T08:52:18;1039.06;;;1.50;24.94
46886;BME280;32622;48.202;11.326;2023-02-05T08:54:20;1038.94;;;1.75;24.81
46886;BME280;32622;48.202;11.326;2023-02-05T08:56:23;1039.04;;;1.23;25.07
46886;BME280;32622;48.202;11.326;2023-02-05T08:58:26;1038.97;;;1.51;25.09
46886;BME280;32622;48.202;11.326;2023-02-05T09:00:28;1038.93;;;1.18;25.13
46886;BME280;32622;48.202;11.326;2023-02-05T09:02:31;1038.93;;;0.81;25.15
46886;BME280;32622;48.202;11.326;2023-02-05T09:04:34;1038.74;;;1.59;25.12
46886;BME280;32622;48.202;11.326;2023-02-05T09:06:36;1038.84;;;1.20;25.33
46886;BME280;32622;48.202;11.326;2023-02-05T09:08:39;1038.80;;;1.36;25.21
46886;BME280;32622;48.202;11.326;2023-02-05T09:10:43;1038.82;;;1.24;25.32
46886;BME280;32622;48.202;11.326;2023-02-05T09:12:46;1038.69;;;1.72;25.30
46886;BME280;32622;48.202;11.326;2023-02-05T09:14:49;1038.87;;;1.12;25.31
46886;BME280;32622;48.202;11.326;2023-02-05T09:16:51;1038.71;;;1.77;25.41
46886;BME280;32622;48.202;11.326;2023-02-05T09:18:54;1038.70;;;1.79;25.47
46886;BME280;32622;48.202;11.326;2023-02-05T09:20:57;1038.82;;;1.29;25.30
46886;BME280;32622;48.202;11.326;2023-02-05T09:22:59;1038.75;;;1.62;25.42
46886;BME280;32622;48.202;11.326;2023-02-05T09:25:02;1038.83;;;1.23;25.46
46886;BME280;32622;48.202;11.326;2023-02-05T09:27:05;1038.77;;;1.32;25.93
46886;BME280;32622;48.202;11.326;2023-02-05T09:29:07;1038.67;;;1.50;26.06
46886;BME280;32622;48.202;11.326;2023-02-05T09:31:12;1038.62;;;1.64;26.04
46886;BME280;32622;48.202;11.326;2023-02-05T09:33:15;1038.71;;;1.16;26.11
46886;BME280;32622;48.202;11.326;2023-02-05T09:35:17;1038.69;;;1.32;26.40
46886;BME280;32622;48.202;11.326;2023-02-05T09:37:20;1038.61;;;1.51;26.51
46886;BME280;32622;48.202;11.326;2023-02-05T09:39:22;1038.58;;;1.48;26.12
46886;BME280;32622;48.202;11.326;2023-02-05T09:41:28;1038.59;;;1.32;26.15
46886;BME280;32622;48.202;11.326;2023-02-05T09:43:44;1038.39;;;1.85;26.19
46886;BME280;32622;48.202;11.326;2023-02-05T09:45:55;1038.22;;;2.34;26.31
46886;BME280;32622;48.202;11.326;2023-02-05T09:48:07;1038.38;;;1.65;26.35
46886;BME280;32622;48.202;11.326;2023-02-05T09:50:17;1038.44;;;1.45;27.11
46886;BME280;32622;48.202;11.326;2023-02-05T09:52:23;1038.49;;;1.22;27.63
46886;BME280;32622;48.202;11.326;2023-02-05T09:54:29;1038.79;;;0.21;28.29
46886;BME280;32622;48.202;11.326;2023-02-05T09:56:32;1038.54;;;1.00;27.76
46886;BME280;32622;48.202;11.326;2023-02-05T09:58:40;1038.35;;;1.45;27.39
46886;BME280;32622;48.202;11.326;2023-02-05T10:00:46;1038.32;;;1.35;26.90
46886;BME280;32622;48.202;11.326;2023-02-05T10:02:52;1038.26;;;1.21;27.05
46886;BME280;32622;48.202;11.326;2023-02-05T10:04:58;1038.04;;;2.00;26.37
46886;BME280;32622;48.202;11.326;2023-02-05T10:07:16;1037.85;;;2.40;25.96
46886;BME280;32622;48.202;11.326;2023-02-05T10:09:34;1037.82;;;2.44;26.28
46886;BME280;32622;48.202;11.326;2023-02-05T10:11:43;1037.84;;;2.33;26.17
46886;BME280;32622;48.202;11.326;2023-02-05T10:14:02;1037.97;;;1.63;27.16
46886;BME280;32622;48.202;11.326;2023-02-05T10:18:54;1037.71;;;1.90;26.66
46886;BME280;32622;48.202;11.326;2023-02-05T10:21:09;1037.63;;;2.02;27.12
46886;BME280;32622;48.202;11.326;2023-02-05T10:23:32;1037.54;;;2.36;26.57
46886;BME280;32622;48.202;11.326;2023-02-05T10:25:52;1037.52;;;2.43;26.62
46886;BME280;32622;48.202;11.326;2023-02-05T10:27:59;1037.54;;;2.16;26.99
46886;BME280;32622;48.202;11.326;2023-02-05T10:30:14;1037.63;;;2.10;26.79
46886;BME280;32622;48.202;11.326;2023-02-05T10:32:21;1037.68;;;1.85;27.25
46886;BME280;32622;48.202;11.326;2023-02-05T10:34:34;1037.59;;;2.02;26.79
46886;BME280;32622;48.202;11.326;2023-02-05T10:36:42;1037.52;;;2.38;26.62
46886;BME280;32622;48.202;11.326;2023-02-05T10:38:45;1037.29;;;3.01;25.85
46886;BME280;32622;48.202;11.326;2023-02-05T10:40:51;1037.30;;;2.90;25.98
46886;BME280;32622;48.202;11.326;2023-02-05T10:42:59;1037.25;;;2.98;25.47
46886;BME280;32622;48.202;11.326;2023-02-05T10:45:11;1037.18;;;2.96;25.59
46886;BME280;32622;48.202;11.326;2023-02-05T10:47:18;1037.43;;;1.73;26.00
46886;BME280;32622;48.202;11.326;2023-02-05T10:49:27;1037.12;;;2.93;25.83
46886;BME280;32622;48.202;11.326;2023-02-05T10:51:37;1037.08;;;2.99;25.69
46886;BME280;32622;48.202;11.326;2023-02-05T10:53:41;1037.03;;;2.94;25.73
46886;BME280;32622;48.202;11.326;2023-02-05T10:55:44;1037.05;;;2.87;25.32
46886;BME280;32622;48.202;11.326;2023-02-05T10:57:46;1036.96;;;3.11;25.41
46886;BME280;32622;48.202;11.326;2023-02-05T10:59:52;1037.00;;;2.86;25.67
46886;BME280;32622;48.202;11.326;2023-02-05T11:01:59;1037.07;;;2.77;25.56
46886;BME280;32622;48.202;11.326;2023-02-05T11:04:06;1037.01;;;2.86;25.28
46886;BME280;32622;48.202;11.326;2023-02-05T11:06:10;1036.78;;;3.78;25.13
46886;BME280;32622;48.202;11.326;2023-02-05T11:08:31;1036.93;;;3.23;25.46
46886;BME280;32622;48.202;11.326;2023-02-05T11:10:34;1037.11;;;2.34;25.87
46886;BME280;32622;48.202;11.326;2023-02-05T11:12:37;1037.08;;;2.30;25.85
46886;BME280;32622;48.202;11.326;2023-02-05T11:14:43;1036.97;;;2.52;25.54
46886;BME280;32622;48.202;11.326;2023-02-05T11:16:46;1036.73;;;3.42;25.44
46886;BME280;32622;48.202;11.326;2023-02-05T11:18:56;1036.77;;;3.32;25.44
46886;BME280;32622;48.202;11.326;2023-02-05T11:21:01;1036.74;;;3.48;24.83
46886;BME280;32622;48.202;11.326;2023-02-05T11:23:10;1036.87;;;2.76;25.23